Time;durP1;ratioP1;P1;durP2;ratioP2;P2;SDS_P1;SDS_P2;PMS_P1;PMS_P2;Temp;Humidity;BMP_temperature;BMP_pressure;BME280_temperature;BME280_humidity;BME280_pressure;Samples;Min_cycle;Max_cycle;Signal;HPM_P1;HPM_P2
2022/10/19 00:02:16;;;;;;;;;;;;;;;;;;;;;
2022/10/19 00:55:50;;;;;;;;;;;;;;;;;;;;;
2022/10/19 01:03:12;;;;;;;20.90;7.85;;;;;;;3.51;100.00;101363.58;;;;
2022/10/19 01:05:48;;;;;;;20.68;7.42;;;;;;;3.44;100.00;101362.69;;;;
2022/10/19 01:13:46;;;;;;;;;;;;;;;;;;;;;
2022/10/19 01:16:58;;;;;;;19.80;7.53;;;;;;;3.35;100.00;101358.52;1234320;110;21070;-87
2022/10/19 01:34:14;;;;;;;;;;;;;;;;;;;;;
2022/10/19 01:36:56;;;;;;;18.45;7.58;;;;;;;3.14;100.00;101333.56;1194250;118;21755;-87
2022/10/19 01:39:54;;;;;;;24.52;8.93;;;;;;;3.12;100.00;101332.14;1202801;117;21200;-87
2022/10/19 02:14:16;;;;;;;;;;;;;;;;;;;;;
2022/10/19 02:40:23;;;;;;;;;;;;;;;;;;;;;
2022/10/19 03:00:42;;;;;;;;;;;;;;;;;;;;;
2022/10/19 03:03:42;;;;;;;34.88;10.65;;;;;;;2.96;100.00;101236.05;1175967;119;21308;-87
2022/10/19 03:15:29;;;;;;;;;;;;;;;;;;;;;
2022/10/19 03:22:55;;;;;;;;;;;;;;;;;;;;;
2022/10/19 03:39:40;;;;;;;31.70;9.80;;;;;;;3.47;100.00;101190.96;1195442;118;21938;-86
2022/10/19 03:42:07;;;;;;;30.45;10.15;;;;;;;3.55;100.00;101184.14;1195921;118;21352;-86
2022/10/19 03:44:33;;;;;;;29.25;10.45;;;;;;;3.58;100.00;101173.08;1214717;114;21757;-87
2022/10/19 03:46:59;;;;;;;28.17;10.82;;;;;;;3.64;100.00;101171.77;1269556;112;21291;-87
2022/10/19 03:49:25;;;;;;;30.45;10.35;;;;;;;3.70;100.00;101163.48;1276243;109;21129;-86
2022/10/19 03:51:51;;;;;;;30.70;10.45;;;;;;;3.79;100.00;101166.27;1306075;108;22266;-86
2022/10/19 03:54:17;;;;;;;24.60;9.75;;;;;;;3.89;100.00;101157.09;1306121;109;21694;-87
2022/10/19 03:56:43;;;;;;;34.95;10.50;;;;;;;3.96;100.00;101152.07;1310864;108;21099;-86
2022/10/19 03:59:14;;;;;;;31.80;9.90;;;;;;;4.04;100.00;101151.89;1346934;106;21222;-86
2022/10/19 04:01:44;;;;;;;26.57;9.53;;;;;;;4.09;100.00;101147.29;1357390;102;21119;-86
2022/10/19 04:04:17;;;;;;;30.60;9.88;;;;;;;4.15;100.00;101144.30;1443649;99;21886;-87
2022/10/19 04:06:45;;;;;;;26.27;9.95;;;;;;;4.24;100.00;101135.09;1470967;97;21120;-86
2022/10/19 04:09:16;;;;;;;31.52;9.38;;;;;;;4.31;100.00;101129.23;1525293;92;21619;-86
2022/10/19 04:11:42;;;;;;;32.85;10.32;;;;;;;4.42;100.00;101133.96;1556892;92;21072;-86
2022/10/19 04:14:11;;;;;;;26.40;10.32;;;;;;;4.50;100.00;101126.24;1595705;86;21100;-86
2022/10/19 04:16:37;;;;;;;26.15;9.40;;;;;;;4.58;100.00;101129.23;1649585;86;21111;-86
2022/10/19 04:19:03;;;;;;;28.40;10.45;;;;;;;4.81;100.00;101122.11;1648481;87;20994;-86
2022/10/19 04:21:36;;;;;;;31.20;9.70;;;;;;;4.81;100.00;101122.11;1626242;87;21553;-86
2022/10/19 04:24:12;;;;;;;27.22;10.25;;;;;;;4.92;100.00;101120.14;1671215;80;21011;-87
2022/10/19 04:26:43;;;;;;;35.15;11.68;;;;;;;5.03;100.00;101110.64;1806309;79;21594;-86
2022/10/19 04:29:10;;;;;;;36.15;10.45;;;;;;;5.17;100.00;101112.24;1806088;79;21074;-87
2022/10/19 04:31:38;;;;;;;27.55;10.58;;;;;;;5.28;100.00;101106.25;1806021;79;20988;-86
2022/10/19 04:34:04;;;;;;;28.40;10.05;;;;;;;5.43;100.00;101101.97;1805969;79;21070;-86
2022/10/19 04:36:31;;;;;;;30.15;9.80;;;;;;;5.60;100.00;101099.62;1805950;79;21057;-86
2022/10/19 04:38:57;;;;;;;31.05;9.35;;;;;;;5.76;100.00;101100.44;1805991;79;21129;-86
2022/10/19 04:41:24;;;;;;;32.63;10.13;;;;;;;5.90;100.00;101102.00;1806037;79;21102;-86
2022/10/19 04:43:56;;;;;;;27.87;9.73;;;;;;;6.03;100.00;101100.29;1805774;79;21051;-87
2022/10/19 04:46:23;;;;;;;32.58;9.55;;;;;;;6.13;100.00;101094.77;1805614;79;21610;-86
2022/10/19 04:48:49;;;;;;;28.73;9.80;;;;;;;6.29;100.00;101093.39;1806063;79;21016;-86
2022/10/19 04:51:17;;;;;;;24.23;8.90;;;;;;;6.59;100.00;101085.52;1806147;79;20971;-87
2022/10/19 04:53:43;;;;;;;25.30;7.92;;;;;;;7.41;100.00;101072.29;1806051;79;21597;-87
2022/10/19 04:56:16;;;;;;;31.40;7.10;;;;;;;8.52;100.00;101069.45;1805618;79;21110;-87
2022/10/19 04:58:43;;;;;;;18.48;7.60;;;;;;;10.15;100.00;101062.36;1806383;79;21495;-88
2022/10/19 05:01:16;;;;;;;16.35;7.50;;;;;;;11.53;100.00;101054.73;1806092;79;21039;-87
2022/10/19 05:03:43;;;;;;;23.32;8.35;;;;;;;12.05;100.00;101050.08;1806170;79;21050;-87
2022/10/19 05:06:11;;;;;;;21.15;8.50;;;;;;;12.16;100.00;101046.12;1806058;79;21837;-87
2022/10/19 05:08:38;;;;;;;15.68;7.08;;;;;;;12.05;100.00;101036.57;1806134;79;20999;-87
2022/10/19 05:11:13;;;;;;;21.25;7.97;;;;;;;11.81;100.00;101037.43;1805988;79;21522;-86
2022/10/19 05:13:40;;;;;;;22.17;7.80;;;;;;;11.54;100.00;101031.25;1806019;78;21074;-87
2022/10/19 05:16:10;;;;;;;17.27;7.12;;;;;;;11.31;100.00;101012.94;1809215;79;21538;-87
2022/10/19 05:18:36;;;;;;;16.40;7.20;;;;;;;11.19;100.00;101027.65;1692570;84;21521;-87
2022/10/19 05:21:09;;;;;;;21.65;7.58;;;;;;;11.05;100.00;101031.27;1692531;84;21065;-87
2022/10/19 05:23:36;;;;;;;21.12;6.58;;;;;;;10.88;100.00;101028.12;1689667;84;21090;-86
2022/10/19 05:26:09;;;;;;;19.23;6.67;;;;;;;10.85;100.00;101027.78;1688404;85;21642;-86
2022/10/19 05:28:36;;;;;;;16.45;6.83;;;;;;;11.05;100.00;101029.91;1688360;85;21093;-86
2022/10/19 05:31:18;;;;;;;16.00;6.72;;;;;;;11.49;100.00;101020.40;1688233;84;21787;-87
2022/10/19 05:33:45;;;;;;;14.00;5.95;;;;;;;11.59;100.00;101017.27;1688277;85;21093;-87
2022/10/19 05:36:24;;;;;;;16.05;6.40;;;;;;;11.99;100.00;101012.48;1688432;85;21034;-87
2022/10/19 05:38:51;;;;;;;13.25;6.15;;;;;;;12.81;100.00;101011.08;1688388;84;21078;-88
2022/10/19 05:41:19;;;;;;;11.75;5.85;;;;;;;13.52;100.00;101003.70;1688435;85;21566;-88
2022/10/19 05:43:53;;;;;;;12.30;6.12;;;;;;;14.27;100.00;101000.44;1639688;86;21526;-88
2022/10/19 05:46:19;;;;;;;13.40;6.15;;;;;;;14.56;100.00;101003.89;1662848;86;21118;-88
2022/10/19 05:48:46;;;;;;;11.20;5.53;;;;;;;15.15;100.00;100994.42;1663313;86;21659;-89
2022/10/19 05:51:15;;;;;;;13.50;5.53;;;;;;;15.27;100.00;100995.98;1663163;86;21549;-88
2022/10/19 05:53:43;;;;;;;15.60;5.92;;;;;;;15.32;100.00;100989.95;1663241;86;21624;-89
2022/10/19 05:56:17;;;;;;;12.98;5.17;;;;;;;15.45;100.00;100991.23;1659993;85;21202;-88
2022/10/19 05:58:44;;;;;;;15.83;5.90;;;;;;;16.00;100.00;100984.28;1662932;86;21025;-89
2022/10/19 06:01:11;;;;;;;15.78;5.17;;;;;;;16.76;100.00;100986.19;1663462;86;21060;-88
2022/10/19 06:03:37;;;;;;;18.37;5.50;;;;;;;17.69;100.00;100986.48;1640865;86;21529;-88
2022/10/19 06:06:06;;;;;;;12.05;5.05;;;;;;;19.01;100.00;100979.64;1663369;86;21033;-91
2022/10/19 06:08:34;;;;;;;12.73;5.00;;;;;;;20.78;100.00;100971.05;1663296;86;21573;-89
2022/10/19 06:11:16;;;;;;;15.00;5.85;;;;;;;22.81;100.00;100962.56;1642615;87;21514;-90
2022/10/19 06:13:44;;;;;;;9.98;5.58;;;;;;;23.29;100.00;100965.95;1643806;86;21152;-90
2022/10/19 06:16:12;;;;;;;18.10;6.10;;;;;;;23.60;99.03;100955.08;1660156;85;21044;-89
2022/10/19 06:18:39;;;;;;;9.35;5.75;;;;;;;24.43;88.67;100945.72;1679950;85;21107;-90
2022/10/19 06:21:12;;;;;;;13.80;6.10;;;;;;;25.09;75.00;100936.28;1679824;85;21190;-91
2022/10/19 06:23:40;;;;;;;14.05;5.80;;;;;;;25.67;70.37;100931.80;1679809;85;21067;-91
2022/10/19 06:26:10;;;;;;;12.65;6.70;;;;;;;26.56;66.71;100934.06;1680219;85;21082;-91
2022/10/19 06:28:38;;;;;;;16.10;6.20;;;;;;;27.59;60.98;100932.64;1679925;85;21055;-92
2022/10/19 06:31:05;;;;;;;16.32;6.72;;;;;;;28.74;56.55;100928.98;1680158;85;21134;-91
2022/10/19 06:33:32;;;;;;;12.35;6.47;;;;;;;29.63;52.89;100923.72;1680200;85;21948;-91
2022/10/19 06:36:13;;;;;;;12.37;7.00;;;;;;;30.42;48.45;100923.00;1679991;85;21084;-91
2022/10/19 06:38:41;;;;;;;15.32;6.90;;;;;;;30.95;46.37;100916.34;1626574;88;21118;-90
2022/10/19 06:41:07;;;;;;;13.88;7.25;;;;;;;31.65;43.48;100921.70;1626645;88;21152;-91
2022/10/19 06:43:36;;;;;;;16.87;8.48;;;;;;;31.97;42.34;100919.56;1626765;87;21038;-91
2022/10/19 06:46:09;;;;;;;15.28;7.92;;;;;;;32.67;40.83;100917.09;1605160;88;21213;-92
2022/10/19 06:48:35;;;;;;;14.28;8.40;;;;;;;33.22;39.37;100901.91;1642109;86;21545;-91
2022/10/19 06:51:06;;;;;;;16.25;8.05;;;;;;;33.54;38.19;100899.54;1648578;87;21112;-91
2022/10/19 06:53:34;;;;;;;13.57;8.33;;;;;;;34.01;36.98;100897.77;1649086;87;21506;-92
2022/10/19 06:56:03;;;;;;;14.73;8.43;;;;;;;34.22;35.82;100893.99;1648754;85;21100;-91
2022/10/19 06:58:30;;;;;;;17.07;8.48;;;;;;;34.21;35.08;100885.39;1648802;87;21180;-92
2022/10/19 07:01:01;;;;;;;16.42;9.28;;;;;;;34.26;34.23;100880.75;1648546;85;21097;-94
2022/10/19 07:03:30;;;;;;;14.98;9.43;;;;;;;34.40;34.03;100871.41;1599403;88;21637;-93
2022/10/19 07:05:59;;;;;;;22.48;9.80;;;;;;;34.90;32.96;100873.01;1599530;88;21019;-92
2022/10/19 07:08:28;;;;;;;20.82;10.70;;;;;;;34.72;32.25;100873.24;1635559;87;21139;-91
2022/10/19 07:10:58;;;;;;;17.23;10.50;;;;;;;33.19;32.02;100868.41;1650524;87;21320;-91
2022/10/19 07:13:26;;;;;;;17.30;8.90;;;;;;;31.94;33.37;100861.20;1611727;89;21087;-92
2022/10/19 07:16:05;;;;;;;15.30;8.35;;;;;;;32.40;33.53;100852.56;1611395;89;21156;-92
2022/10/19 07:18:35;;;;;;;21.87;9.15;;;;;;;32.76;33.46;100847.05;1633254;86;21048;-92
2022/10/19 07:21:06;;;;;;;17.32;8.48;;;;;;;33.16;32.90;100843.48;1633773;87;21074;-91
2022/10/19 07:23:46;;;;;;;17.73;8.27;;;;;;;33.46;32.95;100834.48;1624509;86;21030;-93
2022/10/19 07:26:22;;;;;;;17.70;8.90;;;;;;;34.27;32.05;100831.38;1591062;89;21160;-92
2022/10/19 07:28:49;;;;;;;12.88;7.75;;;;;;;34.22;30.88;100826.23;1519120;93;21657;-92
2022/10/19 07:31:21;;;;;;;15.88;8.38;;;;;;;33.82;31.50;100822.22;1519603;93;21113;-93
2022/10/19 07:33:59;;;;;;;15.38;7.65;;;;;;;33.70;31.37;100821.52;1519788;93;21130;-94
2022/10/19 07:36:26;;;;;;;16.95;7.55;;;;;;;34.06;31.26;100805.02;1434753;98;21640;-91
2022/10/19 07:38:52;;;;;;;16.07;7.70;;;;;;;34.21;30.19;100804.25;1439152;98;21149;-91
2022/10/19 07:41:21;;;;;;;16.40;8.38;;;;;;;33.84;30.45;100803.82;1438181;98;21170;-91
2022/10/19 07:43:48;;;;;;;15.28;7.80;;;;;;;33.65;30.21;100801.02;1437262;98;21148;-90
2022/10/19 07:46:22;;;;;;;14.45;7.03;;;;;;;33.94;30.44;100800.72;1437249;98;21138;-89
2022/10/19 07:48:49;;;;;;;16.23;6.92;;;;;;;34.19;30.56;100795.50;1405142;99;21796;-90
2022/10/19 07:51:17;;;;;;;14.28;6.45;;;;;;;34.43;30.09;100796.41;1421528;99;21073;-88
2022/10/19 07:53:44;;;;;;;14.90;7.30;;;;;;;34.23;29.86;100786.45;1421714;99;21715;-89
2022/10/19 07:56:13;;;;;;;16.05;7.15;;;;;;;34.12;29.97;100786.56;1421730;100;21137;-90
2022/10/19 07:58:40;;;;;;;14.10;6.53;;;;;;;34.57;30.07;100778.84;1421623;99;21208;-89
2022/10/19 08:01:17;;;;;;;16.42;6.58;;;;;;;35.26;29.39;100775.22;1410036;100;21208;-90
2022/10/19 08:03:45;;;;;;;16.00;7.08;;;;;;;35.72;29.04;100770.06;1402040;102;21299;-90
2022/10/19 08:06:15;;;;;;;19.27;7.20;;;;;;;35.94;28.70;100761.44;1402290;101;21267;-90
2022/10/19 08:08:42;;;;;;;13.67;6.57;;;;;;;35.99;28.49;100756.53;1402279;102;21207;-90
2022/10/19 08:11:19;;;;;;;14.60;6.95;;;;;;;35.41;28.93;100752.56;1402110;102;21826;-89
2022/10/19 08:13:46;;;;;;;14.33;6.20;;;;;;;35.61;29.00;100748.44;1402154;102;21219;-88
2022/10/19 08:16:36;;;;;;;11.28;5.75;;;;;;;35.74;28.60;100747.19;1402081;99;21696;-89
2022/10/19 08:19:11;;;;;;;10.50;6.47;;;;;;;36.51;28.10;100737.01;1422120;99;21253;-89
2022/10/19 08:21:40;;;;;;;15.38;5.92;;;;;;;36.28;27.77;100732.91;1433430;97;21176;-89
2022/10/19 08:24:06;;;;;;;7.30;5.45;;;;;;;35.79;27.38;100725.66;1447360;99;21153;-89
2022/10/19 08:26:37;;;;;;;12.33;5.42;;;;;;;35.53;27.34;100721.10;1494891;90;21407;-89
2022/10/19 08:29:19;;;;;;;9.85;6.22;;;;;;;35.44;26.99;100720.88;1575192;88;21553;-88
2022/10/19 08:31:47;;;;;;;10.78;5.53;;;;;;;35.30;27.05;100712.13;1586881;90;21616;-88
2022/10/19 08:34:14;;;;;;;12.78;5.08;;;;;;;34.82;26.93;100708.46;1586949;90;21153;-88
2022/10/19 08:36:40;;;;;;;10.35;4.85;;;;;;;32.88;28.13;100704.80;1586960;90;21097;-85
2022/10/19 08:39:11;;;;;;;9.13;4.92;;;;;;;31.16;29.29;100716.52;1598313;87;21129;-89
2022/10/19 08:41:57;;;;;;;10.60;4.90;;;;;;;29.48;30.36;100706.12;1643770;86;21037;-89
2022/10/19 08:44:40;;;;;;;16.00;4.90;;;;;;;28.07;31.54;100701.72;1611302;89;21648;-89
2022/10/19 08:47:23;;;;;;;17.27;4.80;;;;;;;26.73;32.68;100708.86;1602622;89;21085;-90
2022/10/19 08:49:50;;;;;;;11.33;4.42;;;;;;;25.44;33.72;100709.42;1601609;89;21594;-88
2022/10/19 08:52:30;;;;;;;10.70;4.37;;;;;;;24.16;35.49;100706.21;1602926;89;21993;-88
2022/10/19 08:55:01;;;;;;;12.10;3.98;;;;;;;23.42;36.97;100710.42;1547588;92;21618;-87
2022/10/19 08:58:04;;;;;;;11.57;4.17;;;;;;;22.99;38.19;100714.50;1543823;93;21117;-89
2022/10/19 09:00:43;;;;;;;9.00;3.90;;;;;;;21.71;39.15;100679.02;1593301;88;21189;-89
2022/10/19 09:03:39;;;;;;;14.35;4.45;;;;;;;21.71;39.15;100679.02;1623553;87;21981;-88
2022/10/19 09:06:11;;;;;;;12.07;3.90;;;;;;;21.33;40.98;100705.31;1619653;88;21223;-88
2022/10/19 09:08:39;;;;;;;7.53;3.75;;;;;;;20.96;41.75;100706.10;1614745;87;21596;-88
2022/10/19 09:11:08;;;;;;;8.23;3.90;;;;;;;20.83;42.35;100696.39;1611955;87;21619;-88
2022/10/19 09:13:41;;;;;;;7.97;3.35;;;;;;;20.69;42.89;100684.82;1619688;88;21137;-88
2022/10/19 09:16:15;;;;;;;;;;;;;;;20.46;43.73;100693.77;1608165;88;21126;-88
2022/10/19 09:18:43;;;;;;;11.68;4.17;;;;;;;20.27;45.96;100690.01;1608369;89;21144;-87
2022/10/19 09:21:41;;;;;;;12.65;4.05;;;;;;;20.16;45.04;100694.19;1639298;87;21084;-87
2022/10/19 09:24:28;;;;;;;7.85;3.22;;;;;;;19.99;45.35;100696.34;1639650;86;21074;-87
2022/10/19 09:26:58;;;;;;;9.63;3.42;;;;;;;19.85;46.22;100674.60;1588644;90;21087;-88
2022/10/19 09:29:41;;;;;;;11.35;3.22;;;;;;;19.78;46.99;100670.19;1562315;91;21195;-86
2022/10/19 09:32:20;;;;;;;12.63;3.40;;;;;;;19.72;46.14;100662.69;1562156;91;21947;-87
2022/10/19 09:35:03;;;;;;;8.95;3.60;;;;;;;19.67;46.91;100666.14;1555267;92;21159;-88
2022/10/19 09:37:31;;;;;;;7.95;3.30;;;;;;;19.60;45.78;100661.69;1539789;92;21055;-88
2022/10/19 09:39:57;;;;;;;9.18;3.45;;;;;;;19.45;45.88;100656.91;1539210;93;21198;-87
2022/10/19 09:42:31;;;;;;;14.35;3.55;;;;;;;19.39;45.87;100660.11;1541716;93;21150;-88
2022/10/19 09:45:17;;;;;;;8.83;3.77;;;;;;;19.44;46.49;100653.11;1541164;93;21117;-88
2022/10/19 09:47:47;;;;;;;7.37;2.47;;;;;;;19.49;47.00;100646.94;1542094;91;21129;-88
2022/10/19 09:50:29;;;;;;;9.63;3.08;;;;;;;19.50;45.98;100651.30;1541423;93;21127;-87
2022/10/19 09:52:59;;;;;;;8.63;2.98;;;;;;;19.44;45.46;100651.74;1573107;90;21078;-88
2022/10/19 09:55:45;;;;;;;8.65;2.80;;;;;;;19.37;45.33;100644.59;1497516;95;21626;-88
2022/10/19 09:58:18;;;;;;;6.60;2.40;;;;;;;19.28;45.30;100640.46;1497689;95;21375;-87
2022/10/19 10:00:54;;;;;;;8.20;2.80;;;;;;;19.19;45.37;100630.07;1497304;95;21133;-87
2022/10/19 10:03:30;;;;;;;6.25;2.30;;;;;;;19.12;45.71;100629.71;1457055;97;21673;-88
2022/10/19 10:06:05;;;;;;;9.75;3.00;;;;;;;19.07;45.74;100629.31;1460812;98;21165;-88
2022/10/19 10:08:35;;;;;;;8.03;3.27;;;;;;;19.04;45.71;100626.64;1441024;99;21513;-88
2022/10/19 10:11:12;;;;;;;9.15;3.62;;;;;;;18.94;45.68;100618.75;1440558;99;39800;-90
2022/10/19 10:13:42;;;;;;;12.13;3.10;;;;;;;18.81;46.29;100625.90;1470500;96;21711;-90
2022/10/19 10:16:16;;;;;;;6.03;2.87;;;;;;;18.73;46.75;100615.73;1387504;103;21742;-89
2022/10/19 10:18:56;;;;;;;;;;;;;;;18.70;46.97;100617.70;1421558;99;21602;-88
2022/10/19 10:21:26;;;;;;;8.53;3.00;;;;;;;18.62;48.43;100619.85;1417167;99;20346;-88
2022/10/19 10:24:12;;;;;;;11.05;3.50;;;;;;;18.58;48.24;100614.75;1433454;98;21181;-89
2022/10/19 10:26:46;;;;;;;9.30;3.40;;;;;;;18.52;48.71;100615.44;1463031;96;21190;-87
2022/10/19 10:29:33;;;;;;;11.08;3.33;;;;;;;18.47;49.75;100612.03;1481113;96;21113;-88
2022/10/19 10:32:12;;;;;;;11.48;4.30;;;;;;;18.42;50.66;100599.34;1447952;98;21620;-88
2022/10/19 10:34:45;;;;;;;10.53;3.35;;;;;;;18.40;51.09;100598.84;1463489;97;21204;-89
2022/10/19 15:23:04;;;;;;;55.58;19.15;;;;;;;14.74;100.00;100437.68;1884105;75;22329;-80
2022/10/19 15:28:29;;;;;;;63.87;20.27;;;;;;;14.82;100.00;100437.00;1737162;82;21046;-82
2022/10/19 15:31:02;;;;;;;59.67;21.15;;;;;;;14.86;100.00;100436.70;1699038;84;21056;-82
2022/10/19 15:33:28;;;;;;;53.45;19.48;;;;;;;14.89;100.00;100445.61;1698870;84;21008;-83
2022/10/19 15:36:08;;;;;;;57.38;20.52;;;;;;;14.89;100.00;100442.89;1698887;84;21145;-82
2022/10/19 15:38:34;;;;;;;55.33;20.10;;;;;;;14.91;100.00;100442.59;1699142;84;21090;-82
2022/10/19 15:41:03;;;;;;;59.98;19.35;;;;;;;14.92;100.00;100446.38;1698884;84;21229;-83
2022/10/19 15:43:34;;;;;;;57.33;18.87;;;;;;;14.94;100.00;100444.19;1698715;84;21065;-82
2022/10/19 15:46:14;;;;;;;47.93;17.02;;;;;;;14.96;100.00;100446.05;1698785;84;21126;-83
2022/10/19 15:48:46;;;;;;;49.18;18.32;;;;;;;14.95;100.00;100449.86;1699296;84;21114;-82
2022/10/19 15:51:29;;;;;;;45.90;16.55;;;;;;;14.96;100.00;100457.45;1698809;84;21120;-82
2022/10/19 15:54:02;;;;;;;40.35;15.48;;;;;;;14.92;100.00;100455.08;1699205;84;21466;-80
2022/10/19 15:56:32;;;;;;;36.93;14.90;;;;;;;14.82;100.00;100454.64;1698825;84;21010;-80
2022/10/19 15:59:01;;;;;;;42.00;15.35;;;;;;;14.75;100.00;100452.84;1698969;84;21603;-80
2022/10/19 16:01:31;;;;;;;42.13;14.38;;;;;;;14.68;100.00;100455.13;1699165;84;21064;-80
2022/10/19 16:03:58;;;;;;;34.35;13.70;;;;;;;14.58;100.00;100456.03;1699174;84;20986;-80
2022/10/19 16:06:28;;;;;;;33.70;14.30;;;;;;;14.52;100.00;100449.06;1698785;84;21364;-80
2022/10/19 16:08:57;;;;;;;42.38;13.75;;;;;;;14.48;100.00;100458.84;1704917;83;20967;-80
2022/10/19 16:11:24;;;;;;;33.75;13.40;;;;;;;14.41;100.00;100459.20;1706934;83;21133;-80
2022/10/19 16:13:50;;;;;;;40.12;14.53;;;;;;;14.36;100.00;100458.45;1707182;84;21499;-80
2022/10/19 16:16:30;;;;;;;37.55;14.10;;;;;;;14.30;100.00;100460.41;1707311;83;21022;-80
2022/10/19 16:18:56;;;;;;;34.73;14.13;;;;;;;14.24;100.00;100471.05;1677343;84;21535;-80
2022/10/19 16:21:30;;;;;;;38.53;14.87;;;;;;;14.18;100.00;100476.27;1680735;82;21030;-80
2022/10/19 16:23:59;;;;;;;;;;;;;;;14.09;100.00;100473.37;1713158;81;21098;-80
2022/10/19 16:26:25;;;;;;;37.80;14.18;;;;;;;13.90;100.00;100463.77;1760112;81;20163;-80
2022/10/19 16:28:53;;;;;;;40.60;14.50;;;;;;;13.84;100.00;100481.17;1760364;81;21009;-80
2022/10/19 16:31:22;;;;;;;34.67;14.05;;;;;;;13.76;100.00;100492.05;1760100;81;21246;-80
2022/10/19 16:33:48;;;;;;;35.15;13.00;;;;;;;13.65;100.00;100483.77;1701125;84;21034;-80
2022/10/19 16:36:17;;;;;;;34.05;13.88;;;;;;;13.54;100.00;100487.09;1641011;87;21077;-80
2022/10/19 16:38:51;;;;;;;36.40;14.47;;;;;;;13.43;100.00;100496.38;1641015;87;21038;-79
2022/10/19 16:41:39;;;;;;;;;;;;;;;;;;;;;
2022/10/19 16:44:12;;;;;;;34.88;13.93;;;;;;;13.23;100.00;100510.00;1559140;92;21470;-81
2022/10/19 16:46:53;;;;;;;31.70;13.68;;;;;;;13.08;100.00;100504.13;1558797;92;21097;-80
2022/10/19 16:49:20;;;;;;;26.35;12.40;;;;;;;13.00;100.00;100500.64;1559304;91;21120;-81
2022/10/19 16:51:46;;;;;;;24.82;12.35;;;;;;;12.86;100.00;100509.92;1497271;95;22588;-82
2022/10/19 16:54:14;;;;;;;27.45;13.20;;;;;;;12.77;100.00;100497.52;1494382;95;21158;-81
2022/10/19 16:56:56;;;;;;;29.52;12.80;;;;;;;12.64;100.00;100497.55;1479858;96;21206;-81
2022/10/19 16:59:24;;;;;;;28.15;12.23;;;;;;;12.54;100.00;100503.00;1510239;94;21107;-81
2022/10/19 17:05:02;;;;;;;28.25;12.33;;;;;;;12.41;100.00;100494.10;1472703;97;21147;-81
2022/10/19 17:07:40;;;;;;;27.90;11.88;;;;;;;12.29;100.00;100507.91;1472806;97;21321;-82
2022/10/19 17:10:09;;;;;;;32.53;13.15;;;;;;;12.22;100.00;100504.15;1472891;96;21327;-83
2022/10/19 17:12:43;;;;;;;27.00;12.80;;;;;;;12.19;100.00;100504.69;1478232;96;21091;-83
2022/10/19 17:15:10;;;;;;;29.35;13.10;;;;;;;12.13;100.00;100512.54;1462782;96;21127;-81
2022/10/19 17:18:02;;;;;;;;;;;;;;;;;;;;;
2022/10/19 17:30:54;;;;;;;;;;;;;;;;;;;;;
2022/10/19 18:04:32;;;;;;;30.65;13.32;;;;;;;11.21;100.00;100482.78;1269764;112;21194;-88
2022/10/19 18:58:40;;;;;;;37.05;16.20;;;;;;;10.92;100.00;100483.78;1249375;113;21217;-87
2022/10/19 19:01:21;;;;;;;37.70;15.80;;;;;;;10.88;100.00;100490.23;1256767;112;21246;-87
2022/10/19 19:17:05;;;;;;;38.10;15.68;;;;;;;10.90;100.00;100498.86;1212733;116;21261;-86
2022/10/19 19:19:45;;;;;;;;;;;;;;;;;;;;;
2022/10/19 19:52:00;;;;;;;;;;;;;;;;;;;;;
2022/10/19 19:54:51;;;;;;;;;;;;;;;;;;;;;
2022/10/19 19:57:12;;;;;;;45.35;18.90;;;;;;;10.70;100.00;100478.55;1217870;117;21206;-85
2022/10/19 21:07:47;;;;;;;;;;;;;;;;;;;;;
2022/10/19 21:33:31;;;;;;;;;;;;;;;;;;;;;
2022/10/19 22:02:22;;;;;;;41.55;15.38;;;;;;;10.39;100.00;100423.20;1284991;110;21841;-85
